Startpagina
METAR-TAF:

METAR-TAF

Vliegvelden :

Luchthaven Caïro Internationaal

Caïro, Egypte

breedte: 30-08N, lengte: 031-24E, hoogte: 64 m

Actueel weer

Dit bericht is 38 minuten geleden gemaakt, om 11:30 UTC
Wind 4 kt uit het westnoordwesten
Temperatuur 23°C
Vochtigheid 36%
Druk 1016 hPa
Zicht: 6000 m
Weinig wolken op 2500 ft

METAR: HECA 221130Z 30004KT 6000 FEW025 23/07 Q1016 NOSIG

Tijdstip: 14:08 (12:08 UTC)

Verwachting

Dit bericht is 1 uur en het 8 minuten geleden gemaakt, om 11:00 UTC
Verwachting geldig van 22 om 12 UTC tot 23 om 18 UTC
Wind 3 kt uit variabele richting
Zicht: 6000 m
Tijdelijke
van 22 om 18 UTC tot 22 om 24 UTC
Wind 8 kt uit het noordoosten
Kans 40%
van 23 om 00 UTC tot 23 om 06 UTC
Zicht: 4000 m
nevel

TAF: HECA 221100Z 2212/2318 VRB03KT 6000 NSC TEMPO 2218/2224 05008KT PROB40 2300/2306 4000 BR

Waarnemingen en weersverwachtingen van meer dan 4000 vliegvelden (METAR en TAF).

De beschikbare stations zijn de gele en rode punten op de kaart.

Ga met uw muis naar het station om de naam te zien.

Klik dan om waarnemingen en weersverwachtingen te zien.

kaart wijzigen: klik op de groene knoppen met een zwart kruis om in te zoomen, op de groene knop met een streepje om uit te zoomen of op de groene pijlen voor aangrenzende kaarten.


METAR-TAF: